sensor_id;sensor_type;location;lat;lon;timestamp;temperature;humidity
63313;DHT22;49442;45.640;13.812;2024-02-23T00:01:31;9.50;99.90
63313;DHT22;49442;45.640;13.812;2024-02-23T00:03:56;9.50;99.90
63313;DHT22;49442;45.640;13.812;2024-02-23T00:06:22;9.40;99.90
63313;DHT22;49442;45.640;13.812;2024-02-23T00:08:53;9.40;99.90
63313;DHT22;49442;45.640;13.812;2024-02-23T00:11:21;9.40;99.90
63313;DHT22;49442;45.640;13.812;2024-02-23T00:13:47;9.40;99.90
63313;DHT22;49442;45.640;13.812;2024-02-23T00:16:12;9.40;99.90
63313;DHT22;49442;45.640;13.812;2024-02-23T00:18:38;9.40;99.90
63313;DHT22;49442;45.640;13.812;2024-02-23T00:21:04;9.40;99.90
63313;DHT22;49442;45.640;13.812;2024-02-23T00:23:30;9.50;99.90
63313;DHT22;49442;45.640;13.812;2024-02-23T00:25:56;9.50;99.90
63313;DHT22;49442;45.640;13.812;2024-02-23T00:28:21;9.50;99.90
63313;DHT22;49442;45.640;13.812;2024-02-23T00:30:47;9.50;99.90
63313;DHT22;49442;45.640;13.812;2024-02-23T00:33:13;9.40;99.90
63313;DHT22;49442;45.640;13.812;2024-02-23T00:35:39;9.60;99.90
63313;DHT22;49442;45.640;13.812;2024-02-23T00:38:04;9.50;99.90
63313;DHT22;49442;45.640;13.812;2024-02-23T00:40:30;9.50;99.90
63313;DHT22;49442;45.640;13.812;2024-02-23T00:42:56;9.50;99.90
63313;DHT22;49442;45.640;13.812;2024-02-23T00:45:22;9.40;99.90
63313;DHT22;49442;45.640;13.812;2024-02-23T00:47:47;9.40;99.90
63313;DHT22;49442;45.640;13.812;2024-02-23T00:50:14;9.40;99.90
63313;DHT22;49442;45.640;13.812;2024-02-23T00:52:40;9.40;99.90
63313;DHT22;49442;45.640;13.812;2024-02-23T00:55:06;9.50;99.90
63313;DHT22;49442;45.640;13.812;2024-02-23T00:57:37;9.50;99.90
63313;DHT22;49442;45.640;13.812;2024-02-23T01:00:04;9.40;99.90
63313;DHT22;49442;45.640;13.812;2024-02-23T01:02:31;9.50;99.90
63313;DHT22;49442;45.640;13.812;2024-02-23T01:04:57;9.50;99.90
63313;DHT22;49442;45.640;13.812;2024-02-23T01:07:24;9.40;99.90
63313;DHT22;49442;45.640;13.812;2024-02-23T01:09:50;9.40;99.90
63313;DHT22;49442;45.640;13.812;2024-02-23T01:12:16;9.30;99.90
63313;DHT22;49442;45.640;13.812;2024-02-23T01:14:42;9.40;99.90
63313;DHT22;49442;45.640;13.812;2024-02-23T01:17:07;9.40;99.90
63313;DHT22;49442;45.640;13.812;2024-02-23T01:19:33;9.40;99.90
63313;DHT22;49442;45.640;13.812;2024-02-23T01:21:59;9.40;99.90
63313;DHT22;49442;45.640;13.812;2024-02-23T01:24:28;9.50;99.90
63313;DHT22;49442;45.640;13.812;2024-02-23T01:26:55;9.40;99.90
63313;DHT22;49442;45.640;13.812;2024-02-23T01:29:25;9.40;99.90
63313;DHT22;49442;45.640;13.812;2024-02-23T01:31:51;9.30;99.90
63313;DHT22;49442;45.640;13.812;2024-02-23T01:34:17;9.40;99.90
63313;DHT22;49442;45.640;13.812;2024-02-23T01:36:44;9.40;99.90
63313;DHT22;49442;45.640;13.812;2024-02-23T01:39:09;9.40;99.90
63313;DHT22;49442;45.640;13.812;2024-02-23T01:41:36;9.40;99.90
63313;DHT22;49442;45.640;13.812;2024-02-23T01:44:02;9.40;99.90
63313;DHT22;49442;45.640;13.812;2024-02-23T01:46:28;9.30;99.90
63313;DHT22;49442;45.640;13.812;2024-02-23T01:48:54;9.40;99.90
63313;DHT22;49442;45.640;13.812;2024-02-23T01:51:20;9.30;99.90
63313;DHT22;49442;45.640;13.812;2024-02-23T01:53:46;9.20;99.90
63313;DHT22;49442;45.640;13.812;2024-02-23T01:56:14;9.30;99.90
63313;DHT22;49442;45.640;13.812;2024-02-23T01:58:43;9.30;99.90
63313;DHT22;49442;45.640;13.812;2024-02-23T02:01:10;9.40;99.90
63313;DHT22;49442;45.640;13.812;2024-02-23T02:03:38;9.30;99.90
63313;DHT22;49442;45.640;13.812;2024-02-23T02:06:09;9.30;99.90
63313;DHT22;49442;45.640;13.812;2024-02-23T02:08:35;9.30;99.90
63313;DHT22;49442;45.640;13.812;2024-02-23T02:11:01;9.30;99.90
63313;DHT22;49442;45.640;13.812;2024-02-23T02:13:29;9.20;99.90
63313;DHT22;49442;45.640;13.812;2024-02-23T02:15:57;9.20;99.90
63313;DHT22;49442;45.640;13.812;2024-02-23T02:18:23;9.30;99.90
63313;DHT22;49442;45.640;13.812;2024-02-23T02:20:54;9.30;99.90
63313;DHT22;49442;45.640;13.812;2024-02-23T02:23:20;9.20;99.90
63313;DHT22;49442;45.640;13.812;2024-02-23T02:25:53;9.20;99.90
63313;DHT22;49442;45.640;13.812;2024-02-23T02:28:19;9.20;99.90
63313;DHT22;49442;45.640;13.812;2024-02-23T02:30:45;9.20;99.90
63313;DHT22;49442;45.640;13.812;2024-02-23T02:33:10;9.30;99.90
63313;DHT22;49442;45.640;13.812;2024-02-23T02:35:36;9.40;99.90
63313;DHT22;49442;45.640;13.812;2024-02-23T02:38:02;9.40;99.90
63313;DHT22;49442;45.640;13.812;2024-02-23T02:40:27;9.40;99.90
63313;DHT22;49442;45.640;13.812;2024-02-23T02:42:53;9.30;99.90
63313;DHT22;49442;45.640;13.812;2024-02-23T02:45:19;9.30;99.90
63313;DHT22;49442;45.640;13.812;2024-02-23T02:47:44;9.30;99.90
63313;DHT22;49442;45.640;13.812;2024-02-23T02:50:10;9.30;99.90
63313;DHT22;49442;45.640;13.812;2024-02-23T02:52:36;9.40;99.90
63313;DHT22;49442;45.640;13.812;2024-02-23T02:55:01;9.40;99.90
63313;DHT22;49442;45.640;13.812;2024-02-23T02:57:27;9.30;99.90
63313;DHT22;49442;45.640;13.812;2024-02-23T02:59:53;9.30;99.90
63313;DHT22;49442;45.640;13.812;2024-02-23T03:02:19;9.30;99.90
63313;DHT22;49442;45.640;13.812;2024-02-23T03:04:50;9.30;99.90
63313;DHT22;49442;45.640;13.812;2024-02-23T03:07:16;9.30;99.90
63313;DHT22;49442;45.640;13.812;2024-02-23T03:09:42;9.50;99.90
63313;DHT22;49442;45.640;13.812;2024-02-23T03:12:08;9.40;99.90
63313;DHT22;49442;45.640;13.812;2024-02-23T03:14:34;9.40;99.90
63313;DHT22;49442;45.640;13.812;2024-02-23T03:17:00;9.40;99.90
63313;DHT22;49442;45.640;13.812;2024-02-23T03:19:25;9.40;99.90
63313;DHT22;49442;45.640;13.812;2024-02-23T03:21:52;9.40;99.90
63313;DHT22;49442;45.640;13.812;2024-02-23T03:24:18;9.30;99.90
63313;DHT22;49442;45.640;13.812;2024-02-23T03:26:43;9.30;99.90
63313;DHT22;49442;45.640;13.812;2024-02-23T03:29:10;9.30;99.90
63313;DHT22;49442;45.640;13.812;2024-02-23T03:31:36;9.40;99.90
63313;DHT22;49442;45.640;13.812;2024-02-23T03:34:02;9.40;99.90
63313;DHT22;49442;45.640;13.812;2024-02-23T03:36:28;9.40;99.90
63313;DHT22;49442;45.640;13.812;2024-02-23T03:38:54;9.40;99.90
63313;DHT22;49442;45.640;13.812;2024-02-23T03:41:20;9.40;99.90
63313;DHT22;49442;45.640;13.812;2024-02-23T03:43:45;9.40;99.90
63313;DHT22;49442;45.640;13.812;2024-02-23T03:46:11;9.50;99.90
63313;DHT22;49442;45.640;13.812;2024-02-23T03:48:37;9.50;99.90
63313;DHT22;49442;45.640;13.812;2024-02-23T03:51:08;9.60;99.90
63313;DHT22;49442;45.640;13.812;2024-02-23T03:53:33;9.40;99.90
63313;DHT22;49442;45.640;13.812;2024-02-23T03:55:59;9.50;99.90
63313;DHT22;49442;45.640;13.812;2024-02-23T03:58:25;9.50;99.90
63313;DHT22;49442;45.640;13.812;2024-02-23T04:00:51;9.50;99.90
63313;DHT22;49442;45.640;13.812;2024-02-23T04:03:17;9.50;99.90
63313;DHT22;49442;45.640;13.812;2024-02-23T04:05:43;9.50;99.90
63313;DHT22;49442;45.640;13.812;2024-02-23T04:08:08;9.50;99.90
63313;DHT22;49442;45.640;13.812;2024-02-23T04:10:34;9.60;99.90
63313;DHT22;49442;45.640;13.812;2024-02-23T04:13:00;9.60;99.90
63313;DHT22;49442;45.640;13.812;2024-02-23T04:15:26;9.50;99.90
63313;DHT22;49442;45.640;13.812;2024-02-23T04:17:54;9.50;99.90
63313;DHT22;49442;45.640;13.812;2024-02-23T04:20:19;9.50;99.90
63313;DHT22;49442;45.640;13.812;2024-02-23T04:22:45;9.50;99.90
63313;DHT22;49442;45.640;13.812;2024-02-23T04:25:11;9.50;99.90
63313;DHT22;49442;45.640;13.812;2024-02-23T04:27:37;9.50;99.90
63313;DHT22;49442;45.640;13.812;2024-02-23T04:30:04;9.50;99.90
63313;DHT22;49442;45.640;13.812;2024-02-23T04:32:30;9.50;99.90
63313;DHT22;49442;45.640;13.812;2024-02-23T04:34:56;9.50;99.90
63313;DHT22;49442;45.640;13.812;2024-02-23T04:37:22;9.50;99.90
63313;DHT22;49442;45.640;13.812;2024-02-23T04:39:47;9.50;99.90
63313;DHT22;49442;45.640;13.812;2024-02-23T04:42:13;9.60;99.90
63313;DHT22;49442;45.640;13.812;2024-02-23T04:44:41;9.50;99.90
63313;DHT22;49442;45.640;13.812;2024-02-23T04:47:07;9.50;99.90
63313;DHT22;49442;45.640;13.812;2024-02-23T04:49:33;9.60;99.90
63313;DHT22;49442;45.640;13.812;2024-02-23T04:51:58;9.60;99.90
63313;DHT22;49442;45.640;13.812;2024-02-23T04:54:24;9.70;99.90
63313;DHT22;49442;45.640;13.812;2024-02-23T04:56:50;9.60;99.90
63313;DHT22;49442;45.640;13.812;2024-02-23T04:59:16;9.70;99.90
63313;DHT22;49442;45.640;13.812;2024-02-23T05:01:41;9.60;99.90
63313;DHT22;49442;45.640;13.812;2024-02-23T05:04:08;9.60;99.90
63313;DHT22;49442;45.640;13.812;2024-02-23T05:06:34;9.60;99.90
63313;DHT22;49442;45.640;13.812;2024-02-23T05:09:01;9.70;99.90
63313;DHT22;49442;45.640;13.812;2024-02-23T05:11:27;9.60;99.90
63313;DHT22;49442;45.640;13.812;2024-02-23T05:13:52;9.60;99.90
63313;DHT22;49442;45.640;13.812;2024-02-23T05:16:18;9.60;99.90
63313;DHT22;49442;45.640;13.812;2024-02-23T05:18:44;9.70;99.90
63313;DHT22;49442;45.640;13.812;2024-02-23T05:21:12;9.70;99.90
63313;DHT22;49442;45.640;13.812;2024-02-23T05:23:38;9.80;99.90
63313;DHT22;49442;45.640;13.812;2024-02-23T05:26:03;9.80;99.90
63313;DHT22;49442;45.640;13.812;2024-02-23T05:28:29;9.80;99.90
63313;DHT22;49442;45.640;13.812;2024-02-23T05:30:55;9.80;99.90
63313;DHT22;49442;45.640;13.812;2024-02-23T05:33:21;9.90;99.90
63313;DHT22;49442;45.640;13.812;2024-02-23T05:35:47;9.90;99.90
63313;DHT22;49442;45.640;13.812;2024-02-23T05:38:16;9.90;99.90
63313;DHT22;49442;45.640;13.812;2024-02-23T05:40:42;9.90;99.90
63313;DHT22;49442;45.640;13.812;2024-02-23T05:43:08;10.00;99.90
63313;DHT22;49442;45.640;13.812;2024-02-23T05:45:34;10.00;99.90
63313;DHT22;49442;45.640;13.812;2024-02-23T05:48:00;10.10;99.90
63313;DHT22;49442;45.640;13.812;2024-02-23T05:50:25;10.10;99.90
63313;DHT22;49442;45.640;13.812;2024-02-23T05:52:51;10.20;99.90
63313;DHT22;49442;45.640;13.812;2024-02-23T05:55:18;10.30;99.90
63313;DHT22;49442;45.640;13.812;2024-02-23T05:57:44;10.30;99.90
63313;DHT22;49442;45.640;13.812;2024-02-23T06:00:10;10.30;99.90
63313;DHT22;49442;45.640;13.812;2024-02-23T06:02:37;10.30;99.90
63313;DHT22;49442;45.640;13.812;2024-02-23T06:05:03;10.40;99.90
63313;DHT22;49442;45.640;13.812;2024-02-23T06:07:29;10.40;99.90
63313;DHT22;49442;45.640;13.812;2024-02-23T06:09:56;10.50;99.90
63313;DHT22;49442;45.640;13.812;2024-02-23T06:12:22;10.50;99.90
63313;DHT22;49442;45.640;13.812;2024-02-23T06:14:48;10.60;99.90
63313;DHT22;49442;45.640;13.812;2024-02-23T06:17:13;10.60;99.90
63313;DHT22;49442;45.640;13.812;2024-02-23T06:19:39;10.60;99.90
63313;DHT22;49442;45.640;13.812;2024-02-23T06:22:05;10.60;99.90
63313;DHT22;49442;45.640;13.812;2024-02-23T06:24:31;10.70;99.90
63313;DHT22;49442;45.640;13.812;2024-02-23T06:26:57;10.70;99.90
63313;DHT22;49442;45.640;13.812;2024-02-23T06:29:23;10.80;99.90
63313;DHT22;49442;45.640;13.812;2024-02-23T06:31:49;10.80;99.90
63313;DHT22;49442;45.640;13.812;2024-02-23T06:34:15;10.80;99.90
63313;DHT22;49442;45.640;13.812;2024-02-23T06:36:42;10.90;99.90
63313;DHT22;49442;45.640;13.812;2024-02-23T06:39:07;10.90;99.90
63313;DHT22;49442;45.640;13.812;2024-02-23T06:41:34;10.90;99.90
63313;DHT22;49442;45.640;13.812;2024-02-23T06:44:00;11.00;99.90
63313;DHT22;49442;45.640;13.812;2024-02-23T06:46:26;11.10;99.90
63313;DHT22;49442;45.640;13.812;2024-02-23T06:48:51;11.20;99.90
63313;DHT22;49442;45.640;13.812;2024-02-23T06:51:17;11.20;99.90
63313;DHT22;49442;45.640;13.812;2024-02-23T06:53:43;11.20;99.90
63313;DHT22;49442;45.640;13.812;2024-02-23T06:56:08;11.20;99.90
63313;DHT22;49442;45.640;13.812;2024-02-23T06:58:34;11.30;99.90
63313;DHT22;49442;45.640;13.812;2024-02-23T07:01:01;11.30;99.90
63313;DHT22;49442;45.640;13.812;2024-02-23T07:03:46;11.40;99.90
63313;DHT22;49442;45.640;13.812;2024-02-23T07:06:14;11.40;99.90
63313;DHT22;49442;45.640;13.812;2024-02-23T07:08:44;11.50;99.90
63313;DHT22;49442;45.640;13.812;2024-02-23T07:11:10;11.50;99.90
63313;DHT22;49442;45.640;13.812;2024-02-23T07:13:35;11.60;99.90
63313;DHT22;49442;45.640;13.812;2024-02-23T07:16:02;11.50;99.90
63313;DHT22;49442;45.640;13.812;2024-02-23T07:18:27;11.60;99.90
63313;DHT22;49442;45.640;13.812;2024-02-23T07:20:53;11.60;99.90
63313;DHT22;49442;45.640;13.812;2024-02-23T07:23:19;11.60;99.90
63313;DHT22;49442;45.640;13.812;2024-02-23T07:25:45;11.60;99.90
63313;DHT22;49442;45.640;13.812;2024-02-23T07:28:10;11.60;99.90
63313;DHT22;49442;45.640;13.812;2024-02-23T07:30:36;11.60;99.90
63313;DHT22;49442;45.640;13.812;2024-02-23T07:33:02;11.60;99.90
63313;DHT22;49442;45.640;13.812;2024-02-23T07:35:27;11.60;99.90
63313;DHT22;49442;45.640;13.812;2024-02-23T07:37:54;11.60;99.90
63313;DHT22;49442;45.640;13.812;2024-02-23T07:40:20;11.60;99.90
63313;DHT22;49442;45.640;13.812;2024-02-23T07:42:46;11.70;99.90
63313;DHT22;49442;45.640;13.812;2024-02-23T07:45:11;11.70;99.90
63313;DHT22;49442;45.640;13.812;2024-02-23T07:47:37;11.70;99.90
63313;DHT22;49442;45.640;13.812;2024-02-23T07:50:03;11.70;99.90
63313;DHT22;49442;45.640;13.812;2024-02-23T07:52:29;11.70;99.90
63313;DHT22;49442;45.640;13.812;2024-02-23T07:54:54;11.80;99.90
63313;DHT22;49442;45.640;13.812;2024-02-23T07:57:21;11.80;99.90
63313;DHT22;49442;45.640;13.812;2024-02-23T07:59:47;11.80;99.90
63313;DHT22;49442;45.640;13.812;2024-02-23T08:02:14;11.80;99.90
63313;DHT22;49442;45.640;13.812;2024-02-23T08:04:40;11.90;99.90
63313;DHT22;49442;45.640;13.812;2024-02-23T08:07:06;11.90;99.90
63313;DHT22;49442;45.640;13.812;2024-02-23T08:09:31;11.90;99.90
63313;DHT22;49442;45.640;13.812;2024-02-23T08:11:57;11.90;99.90
63313;DHT22;49442;45.640;13.812;2024-02-23T08:14:23;11.90;99.90
63313;DHT22;49442;45.640;13.812;2024-02-23T08:16:49;11.90;99.90
63313;DHT22;49442;45.640;13.812;2024-02-23T08:19:15;11.90;99.90
63313;DHT22;49442;45.640;13.812;2024-02-23T08:21:41;12.00;99.90
63313;DHT22;49442;45.640;13.812;2024-02-23T08:24:09;12.00;99.90
63313;DHT22;49442;45.640;13.812;2024-02-23T08:26:34;12.00;99.90
63313;DHT22;49442;45.640;13.812;2024-02-23T08:29:00;12.00;99.90
63313;DHT22;49442;45.640;13.812;2024-02-23T08:31:26;12.10;99.90
63313;DHT22;49442;45.640;13.812;2024-02-23T08:33:51;12.10;99.90
63313;DHT22;49442;45.640;13.812;2024-02-23T08:36:17;12.10;99.90
63313;DHT22;49442;45.640;13.812;2024-02-23T08:38:43;12.10;99.90
63313;DHT22;49442;45.640;13.812;2024-02-23T08:41:08;12.10;99.90
63313;DHT22;49442;45.640;13.812;2024-02-23T08:43:34;12.10;99.90
63313;DHT22;49442;45.640;13.812;2024-02-23T08:46:00;12.20;99.90
63313;DHT22;49442;45.640;13.812;2024-02-23T08:48:25;12.20;99.90
63313;DHT22;49442;45.640;13.812;2024-02-23T08:50:51;12.20;99.90
63313;DHT22;49442;45.640;13.812;2024-02-23T08:53:16;12.20;99.90
63313;DHT22;49442;45.640;13.812;2024-02-23T08:55:42;12.30;99.90
63313;DHT22;49442;45.640;13.812;2024-02-23T08:58:08;12.20;99.90
63313;DHT22;49442;45.640;13.812;2024-02-23T09:00:35;12.20;99.90
63313;DHT22;49442;45.640;13.812;2024-02-23T09:03:02;12.20;99.90
63313;DHT22;49442;45.640;13.812;2024-02-23T09:05:28;12.20;99.90
63313;DHT22;49442;45.640;13.812;2024-02-23T09:07:54;12.20;99.90
63313;DHT22;49442;45.640;13.812;2024-02-23T09:10:20;12.10;99.90
63313;DHT22;49442;45.640;13.812;2024-02-23T09:12:45;12.20;99.90
63313;DHT22;49442;45.640;13.812;2024-02-23T09:15:11;12.20;99.90
63313;DHT22;49442;45.640;13.812;2024-02-23T09:17:37;12.20;99.90
63313;DHT22;49442;45.640;13.812;2024-02-23T09:20:03;12.20;99.90
63313;DHT22;49442;45.640;13.812;2024-02-23T09:22:28;12.30;99.90
63313;DHT22;49442;45.640;13.812;2024-02-23T09:24:54;12.30;99.90
63313;DHT22;49442;45.640;13.812;2024-02-23T09:27:21;12.30;99.90
63313;DHT22;49442;45.640;13.812;2024-02-23T09:29:47;12.30;99.90
63313;DHT22;49442;45.640;13.812;2024-02-23T09:32:13;12.30;99.90
63313;DHT22;49442;45.640;13.812;2024-02-23T09:34:38;12.30;99.90
63313;DHT22;49442;45.640;13.812;2024-02-23T09:37:04;12.30;99.90
63313;DHT22;49442;45.640;13.812;2024-02-23T09:39:30;12.30;99.90
63313;DHT22;49442;45.640;13.812;2024-02-23T09:41:56;12.30;99.90
63313;DHT22;49442;45.640;13.812;2024-02-23T09:44:22;12.40;99.90
63313;DHT22;49442;45.640;13.812;2024-02-23T09:46:48;12.40;99.90
63313;DHT22;49442;45.640;13.812;2024-02-23T09:49:15;12.40;99.90
63313;DHT22;49442;45.640;13.812;2024-02-23T09:51:41;12.40;99.90
63313;DHT22;49442;45.640;13.812;2024-02-23T09:54:07;12.40;99.90
63313;DHT22;49442;45.640;13.812;2024-02-23T09:56:33;12.40;99.90
63313;DHT22;49442;45.640;13.812;2024-02-23T09:59:03;12.40;99.90
63313;DHT22;49442;45.640;13.812;2024-02-23T10:01:30;12.30;99.90
63313;DHT22;49442;45.640;13.812;2024-02-23T10:04:00;12.30;99.90
63313;DHT22;49442;45.640;13.812;2024-02-23T10:06:27;12.40;99.90
63313;DHT22;49442;45.640;13.812;2024-02-23T10:08:53;12.40;99.90
63313;DHT22;49442;45.640;13.812;2024-02-23T10:11:23;12.40;99.90
63313;DHT22;49442;45.640;13.812;2024-02-23T10:13:50;12.40;99.90
63313;DHT22;49442;45.640;13.812;2024-02-23T10:16:20;12.40;99.90
63313;DHT22;49442;45.640;13.812;2024-02-23T10:18:47;12.40;99.90
63313;DHT22;49442;45.640;13.812;2024-02-23T10:21:16;12.40;99.90
63313;DHT22;49442;45.640;13.812;2024-02-23T10:23:44;12.40;99.90
63313;DHT22;49442;45.640;13.812;2024-02-23T10:26:09;12.50;99.90
63313;DHT22;49442;45.640;13.812;2024-02-23T10:28:37;12.50;99.90
63313;DHT22;49442;45.640;13.812;2024-02-23T10:31:07;12.60;99.90
63313;DHT22;49442;45.640;13.812;2024-02-23T10:33:32;12.60;99.90
63313;DHT22;49442;45.640;13.812;2024-02-23T10:36:00;12.70;99.90
63313;DHT22;49442;45.640;13.812;2024-02-23T10:38:27;12.80;99.90
63313;DHT22;49442;45.640;13.812;2024-02-23T10:40:57;12.80;99.90
63313;DHT22;49442;45.640;13.812;2024-02-23T10:43:32;12.90;99.90
63313;DHT22;49442;45.640;13.812;2024-02-23T10:46:00;12.90;99.90
63313;DHT22;49442;45.640;13.812;2024-02-23T10:48:29;12.90;99.90
63313;DHT22;49442;45.640;13.812;2024-02-23T10:50:56;12.80;99.90
63313;DHT22;49442;45.640;13.812;2024-02-23T10:53:24;12.80;99.90
63313;DHT22;49442;45.640;13.812;2024-02-23T10:55:55;12.80;99.90
63313;DHT22;49442;45.640;13.812;2024-02-23T10:58:22;12.80;99.90
63313;DHT22;49442;45.640;13.812;2024-02-23T11:00:48;12.80;99.90
63313;DHT22;49442;45.640;13.812;2024-02-23T11:03:15;12.80;99.90
63313;DHT22;49442;45.640;13.812;2024-02-23T11:05:41;12.80;99.90
63313;DHT22;49442;45.640;13.812;2024-02-23T11:08:06;12.80;99.90
63313;DHT22;49442;45.640;13.812;2024-02-23T11:10:42;12.70;99.90
63313;DHT22;49442;45.640;13.812;2024-02-23T11:13:08;12.80;99.90
63313;DHT22;49442;45.640;13.812;2024-02-23T11:15:34;12.70;99.90
63313;DHT22;49442;45.640;13.812;2024-02-23T11:18:30;12.70;99.90
63313;DHT22;49442;45.640;13.812;2024-02-23T11:21:02;12.80;99.90
63313;DHT22;49442;45.640;13.812;2024-02-23T11:23:48;12.70;99.90
63313;DHT22;49442;45.640;13.812;2024-02-23T11:26:17;12.60;99.90
63313;DHT22;49442;45.640;13.812;2024-02-23T11:28:52;12.50;99.90
63313;DHT22;49442;45.640;13.812;2024-02-23T11:31:23;12.40;99.90
63313;DHT22;49442;45.640;13.812;2024-02-23T11:33:50;12.40;99.90
63313;DHT22;49442;45.640;13.812;2024-02-23T11:36:30;12.30;99.90
63313;DHT22;49442;45.640;13.812;2024-02-23T11:39:00;12.30;99.90
63313;DHT22;49442;45.640;13.812;2024-02-23T11:41:27;12.30;99.90
63313;DHT22;49442;45.640;13.812;2024-02-23T11:43:54;12.30;99.90
63313;DHT22;49442;45.640;13.812;2024-02-23T11:46:21;12.30;99.90
63313;DHT22;49442;45.640;13.812;2024-02-23T11:48:48;12.30;99.90
63313;DHT22;49442;45.640;13.812;2024-02-23T11:51:22;12.40;99.90
63313;DHT22;49442;45.640;13.812;2024-02-23T11:53:49;12.40;99.90
63313;DHT22;49442;45.640;13.812;2024-02-23T11:56:15;12.40;99.90
63313;DHT22;49442;45.640;13.812;2024-02-23T11:58:41;12.50;99.90
63313;DHT22;49442;45.640;13.812;2024-02-23T12:01:07;12.50;99.90
63313;DHT22;49442;45.640;13.812;2024-02-23T12:03:33;12.50;99.90
63313;DHT22;49442;45.640;13.812;2024-02-23T12:06:02;12.50;99.90
63313;DHT22;49442;45.640;13.812;2024-02-23T12:08:30;12.50;99.90
63313;DHT22;49442;45.640;13.812;2024-02-23T12:11:05;12.50;99.90
63313;DHT22;49442;45.640;13.812;2024-02-23T12:13:37;12.50;99.90
63313;DHT22;49442;45.640;13.812;2024-02-23T12:16:03;12.50;99.90
63313;DHT22;49442;45.640;13.812;2024-02-23T12:18:29;12.50;99.90
63313;DHT22;49442;45.640;13.812;2024-02-23T12:21:03;12.60;99.90
63313;DHT22;49442;45.640;13.812;2024-02-23T12:23:43;12.70;99.90
63313;DHT22;49442;45.640;13.812;2024-02-23T12:26:14;12.70;99.90
63313;DHT22;49442;45.640;13.812;2024-02-23T12:28:40;12.80;99.90
63313;DHT22;49442;45.640;13.812;2024-02-23T12:31:07;12.80;99.90
63313;DHT22;49442;45.640;13.812;2024-02-23T12:33:34;12.80;99.90
63313;DHT22;49442;45.640;13.812;2024-02-23T12:36:02;12.90;99.90
63313;DHT22;49442;45.640;13.812;2024-02-23T12:38:28;12.90;99.90
63313;DHT22;49442;45.640;13.812;2024-02-23T12:40:54;12.90;99.90
63313;DHT22;49442;45.640;13.812;2024-02-23T12:43:20;12.90;99.90
63313;DHT22;49442;45.640;13.812;2024-02-23T12:45:55;13.00;99.90
63313;DHT22;49442;45.640;13.812;2024-02-23T12:48:21;13.00;99.90
63313;DHT22;49442;45.640;13.812;2024-02-23T12:50:47;12.90;99.90
63313;DHT22;49442;45.640;13.812;2024-02-23T12:56:06;12.90;99.90
63313;DHT22;49442;45.640;13.812;2024-02-23T12:58:34;12.90;99.90
63313;DHT22;49442;45.640;13.812;2024-02-23T13:01:00;12.90;99.90
63313;DHT22;49442;45.640;13.812;2024-02-23T13:03:26;13.00;99.90
63313;DHT22;49442;45.640;13.812;2024-02-23T13:05:53;13.00;99.90
63313;DHT22;49442;45.640;13.812;2024-02-23T13:08:19;13.10;99.90
63313;DHT22;49442;45.640;13.812;2024-02-23T13:10:45;13.10;99.90
63313;DHT22;49442;45.640;13.812;2024-02-23T13:13:11;13.10;99.90
63313;DHT22;49442;45.640;13.812;2024-02-23T13:15:38;13.10;99.90
63313;DHT22;49442;45.640;13.812;2024-02-23T13:18:04;13.00;99.90
63313;DHT22;49442;45.640;13.812;2024-02-23T13:20:30;13.00;99.90
63313;DHT22;49442;45.640;13.812;2024-02-23T13:22:56;12.90;99.90
63313;DHT22;49442;45.640;13.812;2024-02-23T13:25:21;12.80;99.90
63313;DHT22;49442;45.640;13.812;2024-02-23T13:27:47;12.70;99.90
63313;DHT22;49442;45.640;13.812;2024-02-23T13:30:13;12.70;99.90
63313;DHT22;49442;45.640;13.812;2024-02-23T13:32:39;12.70;99.90
63313;DHT22;49442;45.640;13.812;2024-02-23T13:35:06;12.70;99.90
63313;DHT22;49442;45.640;13.812;2024-02-23T13:37:32;12.60;99.90
63313;DHT22;49442;45.640;13.812;2024-02-23T13:39:58;12.60;99.90
63313;DHT22;49442;45.640;13.812;2024-02-23T13:42:23;12.50;99.90
63313;DHT22;49442;45.640;13.812;2024-02-23T13:44:49;12.40;99.90
63313;DHT22;49442;45.640;13.812;2024-02-23T13:47:15;12.40;99.90
63313;DHT22;49442;45.640;13.812;2024-02-23T13:49:41;12.40;99.90
63313;DHT22;49442;45.640;13.812;2024-02-23T13:52:06;12.40;99.90
63313;DHT22;49442;45.640;13.812;2024-02-23T13:54:32;12.30;99.90
63313;DHT22;49442;45.640;13.812;2024-02-23T13:56:58;12.30;99.90
63313;DHT22;49442;45.640;13.812;2024-02-23T13:59:23;12.10;99.90
63313;DHT22;49442;45.640;13.812;2024-02-23T14:01:49;12.00;99.90
63313;DHT22;49442;45.640;13.812;2024-02-23T14:04:16;12.00;99.90
63313;DHT22;49442;45.640;13.812;2024-02-23T14:06:42;11.90;99.90
63313;DHT22;49442;45.640;13.812;2024-02-23T14:09:09;11.90;99.90
63313;DHT22;49442;45.640;13.812;2024-02-23T14:11:35;11.80;99.90
63313;DHT22;49442;45.640;13.812;2024-02-23T14:14:01;11.80;99.90
63313;DHT22;49442;45.640;13.812;2024-02-23T14:16:28;11.70;99.90
63313;DHT22;49442;45.640;13.812;2024-02-23T14:18:54;11.70;99.90
63313;DHT22;49442;45.640;13.812;2024-02-23T14:21:20;11.70;99.90
63313;DHT22;49442;45.640;13.812;2024-02-23T14:23:48;11.80;99.90
63313;DHT22;49442;45.640;13.812;2024-02-23T14:26:13;11.70;99.90
63313;DHT22;49442;45.640;13.812;2024-02-23T14:28:39;11.70;99.90
63313;DHT22;49442;45.640;13.812;2024-02-23T14:31:05;11.70;99.90
63313;DHT22;49442;45.640;13.812;2024-02-23T14:33:31;11.80;99.90
63313;DHT22;49442;45.640;13.812;2024-02-23T14:35:57;11.70;99.90
63313;DHT22;49442;45.640;13.812;2024-02-23T14:38:23;11.70;99.90
63313;DHT22;49442;45.640;13.812;2024-02-23T14:40:48;11.60;99.90
63313;DHT22;49442;45.640;13.812;2024-02-23T14:43:15;11.60;99.90
63313;DHT22;49442;45.640;13.812;2024-02-23T14:45:40;11.60;99.90
63313;DHT22;49442;45.640;13.812;2024-02-23T14:48:07;11.50;99.90
63313;DHT22;49442;45.640;13.812;2024-02-23T14:50:33;11.60;99.90
63313;DHT22;49442;45.640;13.812;2024-02-23T14:52:59;11.60;99.90
63313;DHT22;49442;45.640;13.812;2024-02-23T14:55:25;11.70;99.90
63313;DHT22;49442;45.640;13.812;2024-02-23T14:57:50;11.70;99.90
63313;DHT22;49442;45.640;13.812;2024-02-23T15:00:17;11.80;99.90
63313;DHT22;49442;45.640;13.812;2024-02-23T15:02:43;11.90;99.90
63313;DHT22;49442;45.640;13.812;2024-02-23T15:05:09;12.00;99.90
63313;DHT22;49442;45.640;13.812;2024-02-23T15:07:35;12.10;99.90
63313;DHT22;49442;45.640;13.812;2024-02-23T15:10:01;12.20;99.90
63313;DHT22;49442;45.640;13.812;2024-02-23T15:12:36;12.30;99.90
63313;DHT22;49442;45.640;13.812;2024-02-23T15:15:02;12.40;99.90
63313;DHT22;49442;45.640;13.812;2024-02-23T15:17:29;12.50;99.90
63313;DHT22;49442;45.640;13.812;2024-02-23T15:19:55;12.50;99.90
63313;DHT22;49442;45.640;13.812;2024-02-23T15:22:21;12.50;99.90